Time;durP1;ratioP1;P1;durP2;ratioP2;P2;SDS_P1;SDS_P2;PMS_P1;PMS_P2;Temp;Humidity;BMP_temperature;BMP_pressure;BME280_temperature;BME280_humidity;BME280_pressure;Samples;Min_cycle;Max_cycle;Signal;HPM_P1;HPM_P2
2022/12/20 00:01:23;;;;;;;2.97;1.55;;;;;;;12.76;87.99;100609.53;8327127;28;20104;-52
2022/12/20 00:05:23;;;;;;;2.10;1.17;;;;;;;12.80;87.71;100608.22;8304136;28;20044;-50
2022/12/20 00:09:24;;;;;;;4.15;1.45;;;;;;;12.69;88.23;100600.31;8325282;28;20045;-54
2022/12/20 00:13:25;;;;;;;3.20;1.45;;;;;;;12.75;88.34;100578.00;8324773;28;20406;-50
2022/12/20 00:17:25;;;;;;;1.35;1.10;;;;;;;12.75;88.77;100567.97;8325323;28;20410;-54
2022/12/20 00:21:28;;;;;;;4.65;1.55;;;;;;;12.47;91.94;100550.03;8326102;28;20046;-52
2022/12/20 00:25:28;;;;;;;1.88;1.30;;;;;;;12.16;93.96;100564.03;8323969;28;20108;-51
2022/12/20 00:29:29;;;;;;;3.30;1.80;;;;;;;12.03;95.14;100577.06;8324731;28;20810;-54
2022/12/20 00:33:29;;;;;;;4.85;1.40;;;;;;;12.06;94.93;100590.31;8324780;28;20057;-52
2022/12/20 00:37:30;;;;;;;2.80;1.55;;;;;;;12.03;95.48;100585.22;8324642;28;20049;-53
2022/12/20 00:41:33;;;;;;;3.83;1.98;;;;;;;12.00;95.17;100589.06;8325081;28;20044;-51
2022/12/20 00:45:33;;;;;;;7.97;4.22;;;;;;;12.13;93.64;100591.47;8324402;28;20451;-51
2022/12/20 00:49:34;;;;;;;3.22;2.08;;;;;;;12.02;94.26;100597.06;8322454;28;20045;-55
2022/12/20 00:53:35;;;;;;;5.57;2.00;;;;;;;12.00;93.75;100609.88;8322691;28;20410;-50
2022/12/20 00:57:36;;;;;;;4.95;1.80;;;;;;;11.78;95.02;100609.22;8323203;28;20045;-52
2022/12/20 01:01:36;;;;;;;3.75;2.03;;;;;;;11.44;95.93;100616.09;8324131;28;20049;-51
2022/12/20 01:05:38;;;;;;;4.65;1.50;;;;;;;11.52;96.77;100616.25;8317931;28;20120;-51
2022/12/20 01:09:39;;;;;;;4.97;2.15;;;;;;;11.35;98.14;100605.28;8290714;28;20044;-51
2022/12/20 01:13:42;;;;;;;5.10;2.22;;;;;;;11.34;98.80;100599.00;8290711;28;20113;-52
2022/12/20 01:17:43;;;;;;;3.15;1.65;;;;;;;11.49;97.87;100608.41;8290679;28;20042;-50
2022/12/20 01:21:44;;;;;;;4.65;2.15;;;;;;;11.51;97.55;100603.72;8291189;28;20071;-53
2022/12/20 01:25:44;;;;;;;3.70;2.35;;;;;;;11.42;98.38;100598.28;8317948;28;20088;-51
2022/12/20 01:29:45;;;;;;;6.57;2.55;;;;;;;11.46;97.98;100597.00;8323166;28;20449;-52
2022/12/20 01:33:47;;;;;;;6.38;2.95;;;;;;;11.34;98.67;100604.41;8323160;28;20048;-53
2022/12/20 01:37:47;;;;;;;3.65;2.60;;;;;;;11.19;98.75;100595.03;8322674;28;20146;-51
2022/12/20 01:41:48;;;;;;;7.20;3.00;;;;;;;11.14;99.25;100591.91;8322826;28;20041;-51
2022/12/20 01:45:49;;;;;;;5.70;3.38;;;;;;;11.06;99.24;100594.47;8322337;28;20506;-54
2022/12/20 01:49:52;;;;;;;5.13;2.90;;;;;;;11.10;99.42;100589.63;8314426;28;20338;-53
2022/12/20 01:54:01;;;;;;;5.65;3.25;;;;;;;11.05;99.46;100581.06;8299243;28;20035;-51
2022/12/20 01:58:08;;;;;;;5.50;3.63;;;;;;;11.12;99.39;100577.66;8322498;28;20269;-55
2022/12/20 02:02:11;;;;;;;7.53;2.92;;;;;;;11.24;98.76;100572.94;8290178;28;20459;-50
2022/12/20 02:06:17;;;;;;;4.18;2.63;;;;;;;11.33;98.33;100564.84;8296658;28;20041;-51
2022/12/20 02:10:21;;;;;;;7.75;3.00;;;;;;;11.38;98.37;100551.69;8290480;28;20044;-53
2022/12/20 02:14:41;;;;;;;3.90;2.97;;;;;;;11.25;98.90;100543.03;8290271;28;20054;-51
2022/12/20 02:18:49;;;;;;;6.63;3.10;;;;;;;11.12;99.02;100542.50;8322508;28;20355;-53
2022/12/20 02:27:33;;;;;;;3.50;3.20;;;;;;;10.90;100.00;100545.50;8319583;28;20403;-49
2022/12/20 02:31:41;;;;;;;6.60;3.38;;;;;;;10.85;100.00;100534.22;8314703;28;20530;-49
2022/12/20 02:35:42;;;;;;;4.47;3.30;;;;;;;10.72;100.00;100541.78;8318237;28;20046;-50
2022/12/20 02:39:47;;;;;;;5.10;3.40;;;;;;;10.65;100.00;100540.63;8318361;28;20044;-49
2022/12/20 02:45:26;;;;;;;5.25;3.47;;;;;;;10.63;100.00;100547.16;8317645;28;20037;-49
2022/12/20 02:48:17;;;;;;;4.45;3.88;;;;;;;10.62;100.00;100550.88;8318357;28;20048;-50
2022/12/20 02:52:24;;;;;;;7.32;3.88;;;;;;;10.63;100.00;100556.13;8317873;28;20044;-49
2022/12/20 02:56:38;;;;;;;5.85;3.97;;;;;;;10.67;100.00;100551.31;8285429;28;20038;-53
2022/12/20 03:00:44;;;;;;;5.60;3.60;;;;;;;10.72;100.00;100535.50;8314551;28;20037;-49
2022/12/20 03:04:47;;;;;;;5.30;4.05;;;;;;;10.79;100.00;100537.50;8317205;28;20029;-50
2022/12/20 03:08:48;;;;;;;6.22;3.55;;;;;;;10.82;100.00;100542.63;8317934;28;20042;-49
2022/12/20 03:12:49;;;;;;;5.45;3.35;;;;;;;10.86;100.00;100519.69;8317191;28;20052;-50
2022/12/20 03:16:51;;;;;;;7.00;3.95;;;;;;;10.89;100.00;100524.81;8317885;28;20054;-50
2022/12/20 03:20:51;;;;;;;4.60;3.47;;;;;;;11.10;100.00;100524.69;8317557;28;20048;-50
2022/12/20 03:24:52;;;;;;;3.47;2.90;;;;;;;11.18;99.61;100525.69;8316243;28;20033;-49
2022/12/20 03:28:53;;;;;;;4.95;2.95;;;;;;;11.29;98.96;100520.09;8317369;28;20124;-52
2022/12/20 03:32:57;;;;;;;4.40;2.53;;;;;;;11.31;100.00;100530.78;8316718;28;20120;-50
2022/12/20 03:36:57;;;;;;;3.20;2.60;;;;;;;11.18;100.00;100527.53;8302440;28;20716;-51
2022/12/20 03:40:58;;;;;;;4.95;3.42;;;;;;;11.16;100.00;100541.19;8295085;28;20034;-50
2022/12/20 03:44:59;;;;;;;3.70;2.70;;;;;;;11.17;100.00;100539.34;8294005;28;20054;-54
2022/12/20 03:49:02;;;;;;;4.22;2.90;;;;;;;11.17;100.00;100532.09;8295029;28;20042;-51
2022/12/20 03:53:03;;;;;;;3.10;2.65;;;;;;;11.02;100.00;100547.06;8294430;28;20180;-51
2022/12/20 03:57:04;;;;;;;4.22;2.45;;;;;;;10.90;100.00;100542.78;8294702;28;20062;-51
2022/12/20 04:01:25;;;;;;;7.32;4.25;;;;;;;10.80;100.00;100541.91;8294253;28;20041;-50
2022/12/20 04:05:26;;;;;;;7.82;3.40;;;;;;;10.71;100.00;100528.41;8293387;28;20045;-54
2022/12/20 04:09:27;;;;;;;6.35;3.30;;;;;;;10.59;100.00;100530.38;8294031;28;20054;-50
2022/12/20 04:13:34;;;;;;;4.03;3.22;;;;;;;10.49;100.00;100537.59;8292537;28;20033;-53
2022/12/20 04:17:34;;;;;;;6.40;3.40;;;;;;;10.53;100.00;100530.94;8294222;28;20042;-50
2022/12/20 04:21:36;;;;;;;6.50;3.40;;;;;;;10.39;100.00;100531.31;8293801;28;20034;-54
2022/12/20 04:25:38;;;;;;;7.07;4.32;;;;;;;10.29;100.00;100526.91;8293196;28;20034;-51
2022/12/20 04:29:40;;;;;;;4.18;3.75;;;;;;;10.16;100.00;100519.06;8293576;28;20442;-53
2022/12/20 04:33:45;;;;;;;8.00;3.55;;;;;;;10.17;100.00;100515.34;8292487;28;20038;-52
2022/12/20 04:37:46;;;;;;;6.88;3.80;;;;;;;10.31;100.00;100504.13;8292924;28;20049;-50
2022/12/20 04:41:48;;;;;;;6.00;3.60;;;;;;;10.49;100.00;100502.47;8292545;28;20038;-54
2022/12/20 04:45:51;;;;;;;3.70;3.10;;;;;;;10.66;100.00;100488.25;8292628;28;20034;-51
2022/12/20 04:49:54;;;;;;;5.07;3.20;;;;;;;10.81;100.00;100496.78;8292141;28;20046;-53
2022/12/20 04:53:56;;;;;;;4.10;3.00;;;;;;;10.73;100.00;100499.38;8292992;28;20054;-50
2022/12/20 04:58:08;;;;;;;7.23;3.60;;;;;;;10.78;100.00;100500.66;8292710;28;20040;-51
2022/12/20 05:02:13;;;;;;;5.18;3.47;;;;;;;10.75;100.00;100498.22;8292419;28;20442;-50
2022/12/20 05:06:21;;;;;;;4.07;3.60;;;;;;;10.58;100.00;100496.22;8289794;28;20046;-53
2022/12/20 05:10:22;;;;;;;5.05;4.10;;;;;;;10.28;100.00;100485.50;8290780;28;20104;-50
2022/12/20 05:14:24;;;;;;;5.97;4.45;;;;;;;10.22;100.00;100487.91;8281065;28;20041;-53
2022/12/20 05:18:26;;;;;;;7.55;3.85;;;;;;;10.22;100.00;100474.41;8282290;28;20048;-51
2022/12/20 05:26:53;;;;;;;5.13;3.63;;;;;;;10.45;100.00;100468.63;8274922;28;20045;-50
2022/12/20 05:30:54;;;;;;;8.65;3.95;;;;;;;10.59;100.00;100472.75;8258819;28;20042;-54
2022/12/20 05:34:55;;;;;;;4.93;2.63;;;;;;;10.96;100.00;100466.47;8279768;28;20494;-50
2022/12/20 05:38:56;;;;;;;3.97;2.70;;;;;;;11.24;100.00;100452.03;8287382;28;20046;-53
2022/12/20 05:42:59;;;;;;;5.38;2.33;;;;;;;11.39;100.00;100453.28;8289789;28;20041;-54
2022/12/20 05:47:09;;;;;;;4.25;2.42;;;;;;;11.41;100.00;100445.00;8290281;28;20034;-53
2022/12/20 05:51:11;;;;;;;4.18;2.15;;;;;;;11.42;100.00;100439.44;8286796;28;20034;-54
2022/12/20 05:55:27;;;;;;;2.88;2.40;;;;;;;11.32;100.00;100444.00;8260617;28;20047;-50
2022/12/20 05:59:27;;;;;;;2.92;2.38;;;;;;;11.19;100.00;100443.50;8289714;28;20034;-51
2022/12/20 06:03:29;;;;;;;3.30;2.30;;;;;;;11.14;100.00;100451.22;8288587;28;20038;-50
2022/12/20 06:07:31;;;;;;;4.65;3.92;;;;;;;11.04;100.00;100434.13;8290287;28;20033;-51
2022/12/20 06:11:33;;;;;;;4.57;2.25;;;;;;;11.16;100.00;100441.06;8290234;28;20042;-53
2022/12/20 06:15:39;;;;;;;4.10;2.45;;;;;;;11.13;100.00;100438.66;8289969;28;20121;-50
2022/12/20 06:19:40;;;;;;;3.28;2.90;;;;;;;11.11;100.00;100437.97;8290493;28;20050;-53
2022/12/20 06:23:43;;;;;;;8.00;3.60;;;;;;;11.18;100.00;100458.03;8289214;28;20117;-53
2022/12/20 06:27:47;;;;;;;11.27;5.83;;;;;;;11.12;100.00;100453.19;8275305;28;20457;-52
2022/12/20 06:31:50;;;;;;;5.43;3.42;;;;;;;11.04;100.00;100444.94;8264109;28;20045;-53
2022/12/20 06:35:51;;;;;;;5.03;2.80;;;;;;;11.02;100.00;100441.56;8269240;28;20034;-52
2022/12/20 06:39:54;;;;;;;4.68;2.58;;;;;;;11.12;100.00;100430.69;8276011;28;20415;-53
2022/12/20 06:43:56;;;;;;;3.47;2.13;;;;;;;11.26;100.00;100425.66;8273505;28;20073;-53
2022/12/20 06:47:58;;;;;;;3.35;2.65;;;;;;;11.28;100.00;100418.25;8262789;28;20327;-52
2022/12/20 06:52:01;;;;;;;3.28;2.95;;;;;;;11.21;100.00;100413.56;8286417;28;20034;-51
2022/12/20 06:56:12;;;;;;;5.00;2.60;;;;;;;11.17;100.00;100407.63;8286031;28;20065;-53
2022/12/20 07:00:13;;;;;;;2.70;2.42;;;;;;;11.22;100.00;100405.31;8275416;28;20049;-50
2022/12/20 07:04:14;;;;;;;3.35;2.70;;;;;;;11.14;100.00;100405.22;8287217;28;20456;-54
2022/12/20 07:08:14;;;;;;;3.72;2.78;;;;;;;11.08;100.00;100392.28;8295238;28;20080;-53
2022/12/20 07:12:15;;;;;;;4.15;2.72;;;;;;;11.11;100.00;100401.94;8292786;28;20054;-53
2022/12/20 07:16:16;;;;;;;4.82;2.55;;;;;;;11.27;100.00;100392.19;8295761;28;20502;-51
2022/12/20 07:20:17;;;;;;;4.97;2.42;;;;;;;11.32;100.00;100384.47;8295016;28;20442;-53
2022/12/20 07:24:17;;;;;;;3.75;2.80;;;;;;;11.30;99.84;100364.84;8294793;28;20138;-51
2022/12/20 07:28:18;;;;;;;4.72;2.28;;;;;;;11.31;100.00;100382.78;8295593;28;20057;-51
2022/12/20 07:32:19;;;;;;;5.63;2.80;;;;;;;11.35;99.89;100386.06;8294546;28;20050;-53
2022/12/20 07:36:19;;;;;;;3.83;2.45;;;;;;;11.53;98.84;100387.81;8295285;28;20499;-51
2022/12/20 07:40:20;;;;;;;5.75;3.60;;;;;;;11.59;97.94;100389.09;8295201;28;20088;-52
2022/12/20 07:44:22;;;;;;;3.45;2.70;;;;;;;11.57;98.02;100383.81;8294229;28;20058;-52
2022/12/20 07:48:23;;;;;;;3.90;2.13;;;;;;;11.69;97.20;100392.63;8295139;28;20526;-51
2022/12/20 07:52:26;;;;;;;4.90;2.40;;;;;;;11.79;96.44;100391.56;8294864;28;20095;-54
2022/12/20 07:56:28;;;;;;;3.65;2.50;;;;;;;11.78;96.54;100373.59;8294526;28;20042;-50
2022/12/20 08:00:30;;;;;;;3.13;2.33;;;;;;;11.70;96.99;100384.34;8294696;28;20046;-50
2022/12/20 08:04:32;;;;;;;6.40;2.30;;;;;;;11.79;96.60;100382.56;8293558;28;20592;-52
2022/12/20 08:08:37;;;;;;;4.72;2.03;;;;;;;11.88;96.10;100377.09;8292695;28;20156;-51
2022/12/20 08:12:38;;;;;;;;;;;;;;;11.85;96.40;100390.97;8294539;28;20046;-50
2022/12/20 08:16:38;;;;;;;2.85;1.95;;;;;;;11.85;96.27;100379.25;8294163;28;19917;-51
2022/12/20 08:20:39;;;;;;;4.72;2.10;;;;;;;11.85;96.68;100393.66;8293717;28;20521;-51
2022/12/20 08:24:39;;;;;;;4.93;2.10;;;;;;;11.91;96.13;100381.34;8293321;28;20062;-50
2022/12/20 08:28:40;;;;;;;2.33;1.58;;;;;;;12.11;95.32;100371.25;8293900;28;20046;-50
2022/12/20 08:32:41;;;;;;;4.18;1.90;;;;;;;12.16;94.25;100374.31;8293260;28;20056;-52
2022/12/20 08:36:42;;;;;;;5.80;2.05;;;;;;;12.16;94.48;100374.31;8293760;28;20042;-53
2022/12/20 08:40:43;;;;;;;2.53;1.50;;;;;;;12.10;94.57;100370.38;8291930;28;20045;-51
2022/12/20 08:44:43;;;;;;;5.80;2.08;;;;;;;12.09;95.17;100384.09;8292802;28;20057;-51
2022/12/20 08:48:44;;;;;;;6.97;2.03;;;;;;;12.04;95.37;100372.88;8293111;28;20076;-49
2022/12/20 08:52:44;;;;;;;5.75;2.05;;;;;;;11.98;95.87;100377.03;8292301;28;20037;-53
2022/12/20 08:56:45;;;;;;;5.60;2.28;;;;;;;11.89;96.65;100372.53;8291551;28;20173;-51
2022/12/20 09:00:46;;;;;;;6.80;2.25;;;;;;;11.76;97.25;100369.34;8292818;28;20034;-50
2022/12/20 09:04:47;;;;;;;5.43;1.98;;;;;;;11.68;98.21;100372.78;8284039;28;20554;-50
2022/12/20 09:08:48;;;;;;;5.22;2.20;;;;;;;11.64;98.98;100379.53;8292525;28;20037;-51
2022/12/20 09:12:49;;;;;;;4.22;2.60;;;;;;;11.59;99.22;100387.22;8291796;28;20105;-52
2022/12/20 09:16:50;;;;;;;3.50;2.15;;;;;;;11.50;99.76;100390.81;8279858;28;20038;-51
2022/12/20 09:20:50;;;;;;;5.75;2.53;;;;;;;11.43;100.00;100384.28;8292035;28;20044;-51
2022/12/20 09:24:51;;;;;;;4.45;2.05;;;;;;;11.19;100.00;100367.72;8289581;28;20038;-51
2022/12/20 09:28:52;;;;;;;3.55;2.35;;;;;;;11.02;100.00;100357.69;8276952;28;20087;-53
2022/12/20 09:32:53;;;;;;;2.75;2.20;;;;;;;10.90;100.00;100356.16;8273608;28;20065;-53
2022/12/20 09:36:54;;;;;;;6.35;3.35;;;;;;;10.89;100.00;100354.44;8273946;28;20049;-50
2022/12/20 09:41:02;;;;;;;2.75;2.47;;;;;;;10.88;100.00;100365.41;8283187;28;20038;-50
2022/12/20 09:45:07;;;;;;;5.03;2.10;;;;;;;10.94;100.00;100357.56;8264262;28;20070;-51
2022/12/20 09:49:15;;;;;;;5.57;2.15;;;;;;;10.97;100.00;100351.88;8257335;28;20565;-49
2022/12/20 09:58:16;;;;;;;6.63;2.75;;;;;;;11.12;100.00;100350.38;8420095;27;20397;-51
2022/12/20 10:02:22;;;;;;;4.55;2.45;;;;;;;11.16;100.00;100349.09;8350882;28;20033;-53
2022/12/20 10:06:40;;;;;;;3.50;2.00;;;;;;;11.17;100.00;100353.50;8366872;28;20041;-49
2022/12/20 10:10:56;;;;;;;6.57;2.10;;;;;;;11.25;100.00;100341.91;8383572;28;20040;-52
2022/12/20 10:15:12;;;;;;;3.05;1.70;;;;;;;11.25;100.00;100342.78;8389393;28;20122;-50
2022/12/20 10:19:40;;;;;;;3.83;2.20;;;;;;;11.27;100.00;100339.94;8383658;28;20449;-54
2022/12/20 10:24:02;;;;;;;5.80;3.22;;;;;;;12.06;97.97;100333.78;8403263;28;20495;-50
2022/12/20 10:28:11;;;;;;;3.30;1.38;;;;;;;12.67;92.70;100310.22;8383210;28;20044;-50
2022/12/20 10:32:17;;;;;;;4.00;1.23;;;;;;;12.97;90.09;100315.19;8349171;28;20080;-50
2022/12/20 10:36:26;;;;;;;2.47;1.15;;;;;;;13.13;88.94;100318.00;8349026;28;20786;-51
2022/12/20 10:40:33;;;;;;;3.30;2.22;;;;;;;13.03;89.33;100311.84;8349682;28;20116;-50
2022/12/20 10:44:34;;;;;;;4.82;2.30;;;;;;;13.03;89.83;100316.41;8349461;28;20169;-50
2022/12/20 10:48:38;;;;;;;3.97;2.25;;;;;;;12.93;90.14;100304.81;8350137;28;20044;-50
2022/12/20 10:52:38;;;;;;;1.88;1.25;;;;;;;13.09;89.28;100303.03;8346396;28;20039;-51
2022/12/20 10:56:39;;;;;;;3.25;1.45;;;;;;;13.29;87.77;100300.94;8346958;28;20033;-54
2022/12/20 11:00:41;;;;;;;2.63;1.10;;;;;;;13.22;88.14;100294.47;8357941;28;20065;-50
2022/12/20 11:04:57;;;;;;;4.40;2.13;;;;;;;13.26;87.96;100287.69;8348962;28;20029;-51
2022/12/20 11:13:30;;;;;;;4.43;1.23;;;;;;;13.03;89.26;100289.28;8315695;28;20407;-52
2022/12/20 11:17:38;;;;;;;3.75;1.40;;;;;;;13.11;88.74;100275.72;8317093;28;20566;-50
2022/12/20 11:22:06;;;;;;;4.65;1.58;;;;;;;13.20;88.05;100281.03;8318609;28;20569;-51
2022/12/20 11:26:42;;;;;;;3.85;1.45;;;;;;;13.27;88.00;100262.25;8317844;28;20612;-50
2022/12/20 11:35:42;;;;;;;7.28;1.60;;;;;;;13.41;87.80;100257.03;8410358;27;20464;-54
2022/12/20 11:40:10;;;;;;;10.30;2.38;;;;;;;13.45;87.66;100257.56;8401083;27;20040;-51
2022/12/20 11:44:49;;;;;;;6.35;1.77;;;;;;;13.46;87.53;100251.97;8400574;27;20024;-51
2022/12/20 11:49:15;;;;;;;12.40;2.58;;;;;;;13.43;87.48;100257.72;8400787;27;20047;-50
2022/12/20 11:53:27;;;;;;;3.60;1.50;;;;;;;13.41;87.45;100251.59;8393003;27;20142;-52
2022/12/20 11:57:35;;;;;;;12.82;2.22;;;;;;;13.50;86.88;100252.47;8393509;28;20044;-50
2022/12/20 12:01:42;;;;;;;5.03;1.45;;;;;;;13.61;86.07;100246.75;8391407;27;20041;-50
2022/12/20 12:05:47;;;;;;;3.17;1.52;;;;;;;13.53;86.06;100233.13;8399882;27;20498;-50
2022/12/20 12:10:07;;;;;;;;;;;;;;;13.60;85.78;100239.59;8398250;27;20401;-52
2022/12/20 12:14:21;;;;;;;7.78;1.48;;;;;;;13.41;86.31;100245.31;8399668;27;20024;-52
2022/12/20 12:18:27;;;;;;;7.80;2.08;;;;;;;13.40;86.71;100240.91;8400124;27;20544;-50
2022/12/20 12:22:34;;;;;;;11.93;2.28;;;;;;;13.44;86.12;100234.13;8397878;27;20483;-51
2022/12/20 12:26:39;;;;;;;5.30;1.38;;;;;;;13.37;86.49;100227.66;8399441;27;20516;-50
2022/12/20 12:30:46;;;;;;;10.18;1.95;;;;;;;13.34;86.62;100222.56;8401685;27;20529;-50
2022/12/20 12:35:13;;;;;;;16.00;2.45;;;;;;;13.44;86.16;100223.25;8399232;27;20036;-51
2022/12/20 12:39:54;;;;;;;12.13;2.70;;;;;;;13.40;86.45;100216.47;8397754;27;20047;-50
2022/12/20 12:44:07;;;;;;;16.15;2.97;;;;;;;13.32;86.61;100217.28;8389879;27;20266;-49
2022/12/20 12:48:35;;;;;;;11.52;2.78;;;;;;;13.30;86.59;100221.19;8376914;28;20048;-50
2022/12/20 12:52:45;;;;;;;15.68;4.00;;;;;;;13.41;86.00;100218.16;8376440;28;20043;-50
2022/12/20 12:56:48;;;;;;;15.98;2.50;;;;;;;13.39;86.48;100203.91;8376428;28;20048;-50
2022/12/20 13:00:59;;;;;;;13.90;2.70;;;;;;;13.35;86.65;100203.38;8375929;28;20182;-50
2022/12/20 13:05:13;;;;;;;18.40;3.25;;;;;;;13.31;86.94;100217.47;8367304;28;20083;-50
2022/12/20 13:13:41;;;;;;;15.60;2.35;;;;;;;13.25;86.58;100196.41;8350013;28;20402;-50
2022/12/20 13:17:48;;;;;;;17.02;2.97;;;;;;;13.31;86.36;100195.75;8349569;28;20037;-49
2022/12/20 13:22:13;;;;;;;15.50;2.78;;;;;;;13.22;87.41;100191.31;8325204;28;20129;-52
2022/12/20 13:26:42;;;;;;;22.90;4.55;;;;;;;13.20;88.00;100198.75;8348201;28;20033;-51
2022/12/20 13:30:44;;;;;;;10.10;2.90;;;;;;;13.22;87.59;100192.16;8351257;28;20044;-53
2022/12/20 13:34:54;;;;;;;8.00;1.80;;;;;;;13.26;87.31;100187.22;8350528;28;20065;-49
2022/12/20 13:38:57;;;;;;;2.40;1.48;;;;;;;13.25;86.74;100180.09;8350446;28;20049;-49
2022/12/20 13:43:05;;;;;;;7.82;1.95;;;;;;;13.24;86.92;100181.13;8352348;28;20076;-50
2022/12/20 13:47:26;;;;;;;5.65;1.55;;;;;;;13.44;85.50;100179.81;8350586;28;20120;-50
2022/12/20 13:51:27;;;;;;;4.90;1.20;;;;;;;13.41;85.44;100174.72;8327520;28;20682;-52
2022/12/20 13:55:34;;;;;;;6.00;1.10;;;;;;;13.44;85.33;100177.09;8344482;28;20111;-50
2022/12/20 13:59:35;;;;;;;3.72;1.30;;;;;;;13.43;85.04;100178.97;8340308;28;20037;-50
2022/12/20 14:03:43;;;;;;;4.40;1.27;;;;;;;13.33;85.69;100178.25;8351971;28;20044;-51
2022/12/20 14:07:46;;;;;;;4.10;1.20;;;;;;;13.35;85.51;100181.66;8351737;28;20032;-50
2022/12/20 14:11:47;;;;;;;2.38;1.10;;;;;;;13.43;84.95;100180.84;8351663;28;20029;-51
2022/12/20 14:15:48;;;;;;;4.28;0.95;;;;;;;13.48;85.33;100175.75;8351612;28;20144;-50
2022/12/20 14:24:21;;;;;;;3.38;1.00;;;;;;;13.40;85.33;100167.59;8351114;27;20517;-50
2022/12/20 14:28:44;;;;;;;1.90;1.02;;;;;;;13.35;85.39;100170.81;8342788;28;20694;-50
2022/12/20 14:32:48;;;;;;;1.60;1.00;;;;;;;13.45;84.76;100159.81;8319829;28;20045;-51
2022/12/20 14:36:50;;;;;;;2.80;1.40;;;;;;;13.48;84.61;100164.91;8310571;28;20038;-50
2022/12/20 14:40:50;;;;;;;4.65;1.70;;;;;;;13.36;85.97;100171.66;8287618;28;20311;-50
2022/12/20 14:45:02;;;;;;;5.00;2.17;;;;;;;13.47;85.22;100158.59;8287103;28;20050;-50
2022/12/20 14:49:25;;;;;;;13.93;5.95;;;;;;;13.60;83.96;100158.94;8280378;28;20038;-52
2022/12/20 14:53:27;;;;;;;8.18;3.92;;;;;;;13.75;83.26;100154.56;8315253;28;20167;-51
2022/12/20 14:57:50;;;;;;;7.50;3.28;;;;;;;13.62;84.18;100158.78;8340585;28;20527;-50
2022/12/20 15:01:52;;;;;;;11.57;3.60;;;;;;;13.26;87.90;100144.66;8314144;28;20037;-49
2022/12/20 15:05:55;;;;;;;5.95;2.63;;;;;;;13.05;89.13;100146.16;8316945;28;20545;-50
2022/12/20 15:09:56;;;;;;;7.78;3.30;;;;;;;12.77;91.58;100144.63;8317691;28;20033;-50
2022/12/20 15:13:57;;;;;;;10.07;3.90;;;;;;;12.88;89.96;100149.78;8317582;28;20038;-55
2022/12/20 15:17:58;;;;;;;7.38;2.47;;;;;;;12.87;90.48;100154.34;8315199;28;20036;-49
2022/12/20 15:21:59;;;;;;;5.88;2.38;;;;;;;12.89;90.19;100156.88;8310878;28;20046;-49
2022/12/20 15:25:59;;;;;;;5.20;2.33;;;;;;;12.75;91.09;100133.13;8341591;28;20045;-49
2022/12/20 15:30:00;;;;;;;6.05;3.88;;;;;;;12.85;90.54;100141.97;8321153;28;20113;-49
2022/12/20 15:34:14;;;;;;;3.90;2.58;;;;;;;12.78;90.91;100136.34;8300070;28;20049;-49
2022/12/20 15:38:18;;;;;;;3.30;1.73;;;;;;;12.89;90.12;100127.91;8291109;28;20041;-49
2022/12/20 15:42:19;;;;;;;1.53;1.30;;;;;;;12.84;90.69;100137.56;8269077;28;20031;-50
2022/12/20 15:46:19;;;;;;;4.50;1.40;;;;;;;12.75;91.45;100133.13;8260531;28;20049;-50
2022/12/20 15:50:20;;;;;;;2.97;1.67;;;;;;;12.75;91.53;100128.53;8290256;28;20518;-49
2022/12/20 15:54:37;;;;;;;3.17;1.77;;;;;;;12.81;91.37;100137.88;8304797;28;20167;-49
2022/12/20 15:58:37;;;;;;;3.15;1.58;;;;;;;12.95;89.84;100140.81;8305506;28;20103;-49
2022/12/20 16:02:38;;;;;;;3.90;1.58;;;;;;;12.94;89.50;100130.13;8276688;28;20042;-50
2022/12/20 16:06:38;;;;;;;5.35;3.42;;;;;;;12.80;90.99;100136.16;8288804;28;20053;-53
2022/12/20 16:10:39;;;;;;;7.80;4.53;;;;;;;12.72;91.43;100138.88;8289375;28;20088;-49
2022/12/20 16:14:41;;;;;;;9.45;5.55;;;;;;;12.61;92.43;100122.88;8289380;28;20053;-49
2022/12/20 16:18:43;;;;;;;4.53;2.42;;;;;;;12.10;94.88;100122.97;8289373;28;20383;-49
2022/12/20 16:22:44;;;;;;;4.80;2.30;;;;;;;11.69;97.70;100127.25;8287319;28;20057;-50
2022/12/20 16:26:47;;;;;;;4.88;2.60;;;;;;;11.66;98.93;100125.69;8288547;28;20046;-49
2022/12/20 16:30:48;;;;;;;5.15;2.53;;;;;;;11.72;98.44;100133.16;8280605;28;20045;-49
2022/12/20 16:34:49;;;;;;;5.07;2.45;;;;;;;11.77;97.85;100136.25;8286600;28;20037;-49
2022/12/20 16:38:51;;;;;;;4.90;3.00;;;;;;;11.76;98.57;100134.56;8289147;28;20041;-51
2022/12/20 16:42:52;;;;;;;4.35;2.13;;;;;;;11.69;100.00;100127.25;8288963;28;20049;-50
2022/12/20 16:46:53;;;;;;;6.75;4.22;;;;;;;11.56;100.00;100133.00;8282913;28;20046;-50
2022/12/20 16:50:53;;;;;;;5.55;2.67;;;;;;;11.30;100.00;100133.94;8275192;28;20046;-50
2022/12/20 16:54:54;;;;;;;6.70;3.70;;;;;;;11.08;100.00;100119.03;8275217;28;20064;-49
2022/12/20 16:58:56;;;;;;;7.85;4.75;;;;;;;11.09;100.00;100123.44;8306260;28;20660;-48
2022/12/20 17:02:57;;;;;;;6.53;3.60;;;;;;;11.11;100.00;100121.44;8313766;28;20050;-49
2022/12/20 17:06:58;;;;;;;3.35;2.20;;;;;;;11.14;100.00;100126.53;8284982;28;20038;-49
2022/12/20 17:10:58;;;;;;;5.18;2.72;;;;;;;11.16;100.00;100119.09;8274172;28;20070;-49
2022/12/20 17:14:59;;;;;;;5.18;2.45;;;;;;;11.17;100.00;100118.13;8293019;28;20050;-48
2022/12/20 17:18:59;;;;;;;6.43;3.00;;;;;;;11.21;100.00;100119.50;8279235;28;20460;-51
2022/12/20 17:23:00;;;;;;;3.75;2.63;;;;;;;11.23;100.00;100120.19;8287389;28;20231;-49
2022/12/20 17:27:00;;;;;;;4.05;2.50;;;;;;;11.23;100.00;100114.75;8285632;28;20080;-49
2022/12/20 17:31:01;;;;;;;7.47;4.03;;;;;;;11.18;100.00;100111.69;8292403;28;20061;-49
2022/12/20 17:35:02;;;;;;;9.98;4.32;;;;;;;11.16;100.00;100097.47;8296350;28;20057;-49
2022/12/20 17:39:02;;;;;;;6.53;4.93;;;;;;;11.21;100.00;100088.88;8300833;28;20061;-49
2022/12/20 17:43:03;;;;;;;5.57;4.13;;;;;;;11.34;100.00;100092.91;8285772;28;20138;-50
2022/12/20 17:47:03;;;;;;;6.35;4.72;;;;;;;11.39;100.00;100085.16;8285435;28;20042;-49
2022/12/20 17:51:26;;;;;;;10.32;3.45;;;;;;;11.43;100.00;100094.66;8286164;28;20034;-51
2022/12/20 17:55:27;;;;;;;4.47;3.05;;;;;;;11.36;100.00;100101.72;8296519;28;20037;-49
2022/12/20 17:59:28;;;;;;;7.35;3.70;;;;;;;11.34;100.00;100090.19;8286870;28;20061;-52
2022/12/20 18:03:28;;;;;;;5.72;3.50;;;;;;;11.28;100.00;100084.53;8287625;28;20041;-52
2022/12/20 18:07:29;;;;;;;8.90;4.30;;;;;;;11.33;100.00;100074.97;8300667;28;20041;-49
2022/12/20 18:11:30;;;;;;;5.72;4.60;;;;;;;11.38;100.00;100080.75;8314193;28;20057;-53
2022/12/20 18:15:30;;;;;;;12.10;5.75;;;;;;;11.41;100.00;100080.44;8285910;28;20076;-51
2022/12/20 18:19:31;;;;;;;12.40;7.47;;;;;;;11.38;100.00;100082.63;8298918;28;20380;-49
2022/12/20 18:23:32;;;;;;;9.10;5.13;;;;;;;11.18;100.00;100090.03;8298566;28;20072;-52
2022/12/20 18:27:38;;;;;;;6.88;4.90;;;;;;;10.92;100.00;100094.50;8284646;28;20342;-49
2022/12/20 18:31:38;;;;;;;6.60;3.33;;;;;;;10.86;100.00;100094.28;8286341;28;20045;-50
2022/12/20 18:35:39;;;;;;;9.88;5.20;;;;;;;10.81;100.00;100092.03;8289155;28;20069;-53
2022/12/20 18:39:39;;;;;;;11.82;8.57;;;;;;;10.86;100.00;100088.88;8286877;28;20069;-53
2022/12/20 18:43:40;;;;;;;9.63;4.25;;;;;;;10.83;100.00;100084.59;8287009;28;20049;-50
2022/12/20 18:47:40;;;;;;;8.88;5.50;;;;;;;10.84;100.00;100091.72;8285045;28;20069;-49
2022/12/20 18:51:42;;;;;;;8.25;4.72;;;;;;;10.85;100.00;100088.00;8283556;28;20120;-51
2022/12/20 18:55:43;;;;;;;11.80;5.45;;;;;;;10.77;100.00;100089.78;8281841;28;20053;-49
2022/12/20 18:59:44;;;;;;;8.20;4.97;;;;;;;10.78;100.00;100092.34;8302679;28;20038;-49
2022/12/20 19:03:45;;;;;;;16.25;7.50;;;;;;;10.90;100.00;100085.72;8294831;28;20096;-51
2022/12/20 19:07:45;;;;;;;10.95;7.07;;;;;;;10.86;100.00;100097.81;8275707;28;20458;-49
2022/12/20 19:11:46;;;;;;;14.77;8.10;;;;;;;10.86;100.00;100088.88;8298305;28;20034;-53
2022/12/20 19:15:47;;;;;;;11.23;6.32;;;;;;;10.91;100.00;100076.59;8294100;28;20483;-49
2022/12/20 19:19:47;;;;;;;12.68;7.47;;;;;;;10.90;100.00;100085.72;8295208;28;20509;-50
2022/12/20 19:23:51;;;;;;;12.35;6.22;;;;;;;11.06;100.00;100085.88;8284203;28;20116;-49